createdAt,value
2023-05-19T00:00:14.820Z,8.74
2023-05-19T00:02:44.856Z,8.74
2023-05-19T00:05:15.152Z,8.73
2023-05-19T00:07:44.027Z,8.74
2023-05-19T00:10:13.943Z,8.75
2023-05-19T00:12:42.906Z,8.74
2023-05-19T00:15:13.153Z,8.75
2023-05-19T00:17:42.454Z,8.76
2023-05-19T00:20:12.589Z,8.72
2023-05-19T00:22:44.054Z,8.71
2023-05-19T00:25:13.242Z,8.69
2023-05-19T00:27:41.972Z,8.65
2023-05-19T00:30:11.770Z,8.58
2023-05-19T00:32:41.684Z,8.61
2023-05-19T00:35:11.546Z,8.61
2023-05-19T00:37:40.422Z,8.60
2023-05-19T00:40:10.856Z,8.60
2023-05-19T00:42:39.712Z,8.61
2023-05-19T00:45:09.680Z,8.61
2023-05-19T00:47:38.616Z,8.59
2023-05-19T00:50:08.188Z,8.56
2023-05-19T00:52:36.990Z,8.52
2023-05-19T00:55:06.273Z,8.49
2023-05-19T00:57:35.026Z,8.48
2023-05-19T01:00:05.629Z,8.47
2023-05-19T01:02:38.149Z,8.47
2023-05-19T01:05:08.512Z,8.48
2023-05-19T01:07:37.833Z,8.45
2023-05-19T01:10:07.160Z,8.47
2023-05-19T01:12:36.006Z,8.44
2023-05-19T01:15:05.402Z,8.47
2023-05-19T01:17:36.121Z,8.47
2023-05-19T01:20:07.927Z,8.46
2023-05-19T01:22:43.680Z,8.44
2023-05-19T01:25:26.048Z,8.43
2023-05-19T01:28:11.461Z,8.41
2023-05-19T01:30:47.878Z,8.39
2023-05-19T01:33:16.657Z,8.36
2023-05-19T01:35:45.750Z,8.33
2023-05-19T01:38:14.503Z,8.31
2023-05-19T01:40:44.049Z,8.27
2023-05-19T01:43:14.253Z,8.30
2023-05-19T01:45:43.275Z,8.31
2023-05-19T01:48:12.981Z,8.31
2023-05-19T01:50:42.297Z,8.31
2023-05-19T01:53:11.474Z,8.34
2023-05-19T01:55:43.668Z,8.34
2023-05-19T01:58:17.945Z,8.36
2023-05-19T02:00:49.621Z,8.37
2023-05-19T02:03:23.536Z,8.36
2023-05-19T02:05:54.528Z,8.35
2023-05-19T02:08:24.961Z,8.36
2023-05-19T02:10:56.494Z,8.35
2023-05-19T02:13:26.809Z,8.34
2023-05-19T02:15:55.654Z,8.31
2023-05-19T02:18:25.096Z,8.28
2023-05-19T02:20:53.828Z,8.24
2023-05-19T02:23:22.792Z,8.26
2023-05-19T02:25:51.587Z,8.26
2023-05-19T02:28:21.935Z,8.27
2023-05-19T02:30:50.704Z,8.28
2023-05-19T02:33:20.037Z,8.29
2023-05-19T02:35:48.959Z,8.30
2023-05-19T02:38:18.476Z,8.29
2023-05-19T02:40:47.202Z,8.26
2023-05-19T02:43:16.086Z,8.24
2023-05-19T02:45:46.234Z,8.24
2023-05-19T02:48:15.042Z,8.24
2023-05-19T02:50:43.868Z,8.23
2023-05-19T02:53:12.603Z,8.17
2023-05-19T02:55:41.355Z,8.18
2023-05-19T02:58:10.155Z,8.18
2023-05-19T03:00:39.016Z,8.18
2023-05-19T03:03:10.368Z,8.19
2023-05-19T03:05:39.295Z,8.19
2023-05-19T03:08:08.195Z,8.21
2023-05-19T03:10:37.408Z,8.23
2023-05-19T03:13:06.181Z,8.23
2023-05-19T03:15:36.667Z,8.21
2023-05-19T03:18:06.250Z,8.22
2023-05-19T03:20:35.138Z,8.22
2023-05-19T03:23:03.950Z,8.18
2023-05-19T03:25:32.774Z,8.17
2023-05-19T03:28:01.577Z,8.15
2023-05-19T03:30:30.667Z,8.11
2023-05-19T03:33:11.264Z,8.08
2023-05-19T03:35:41.793Z,8.06
2023-05-19T03:38:10.911Z,8.04
2023-05-19T03:40:41.362Z,8.02
2023-05-19T03:43:11.916Z,8.01
2023-05-19T03:45:46.684Z,7.98
2023-05-19T03:48:34.196Z,8.01
2023-05-19T03:51:29.972Z,8.03
2023-05-19T03:54:04.576Z,8.04
2023-05-19T03:56:34.125Z,8.18
2023-05-19T03:59:02.999Z,8.36
2023-05-19T04:01:31.832Z,8.58
2023-05-19T04:04:00.757Z,8.81
2023-05-19T04:06:29.782Z,9.06
2023-05-19T04:08:58.616Z,9.29
2023-05-19T04:11:27.393Z,9.45
2023-05-19T04:13:56.602Z,9.61
2023-05-19T04:16:25.503Z,9.69
2023-05-19T04:18:54.475Z,9.72
2023-05-19T04:21:23.442Z,9.77
2023-05-19T04:23:52.820Z,9.86
2023-05-19T04:26:22.535Z,10.01
2023-05-19T04:28:52.085Z,10.20
2023-05-19T04:31:21.729Z,10.35
2023-05-19T04:33:50.587Z,10.50
2023-05-19T04:36:21.573Z,10.65
2023-05-19T04:38:54.843Z,10.82
2023-05-19T04:41:25.050Z,11.15
2023-05-19T04:43:53.834Z,11.46
2023-05-19T04:46:24.420Z,11.71
2023-05-19T04:48:55.537Z,11.95
2023-05-19T04:51:30.340Z,12.16
2023-05-19T04:54:00.371Z,12.34
2023-05-19T04:56:30.062Z,12.51
2023-05-19T04:58:59.308Z,12.69
2023-05-19T05:01:31.359Z,12.87
2023-05-19T05:04:02.596Z,13.12
2023-05-19T05:06:32.445Z,13.33
2023-05-19T05:09:01.440Z,13.56
2023-05-19T05:11:31.335Z,13.53
2023-05-19T05:14:01.971Z,13.52
2023-05-19T05:16:32.028Z,13.57
2023-05-19T05:19:01.596Z,13.57
2023-05-19T05:21:31.805Z,13.59
2023-05-19T05:24:02.260Z,13.52
2023-05-19T05:26:33.674Z,13.51
2023-05-19T05:29:02.992Z,13.44
2023-05-19T05:31:32.547Z,13.33
2023-05-19T05:34:01.536Z,13.38
2023-05-19T05:36:32.153Z,13.52
2023-05-19T05:39:02.476Z,13.69
2023-05-19T05:41:35.170Z,13.80
2023-05-19T05:44:06.845Z,13.82
2023-05-19T05:46:36.045Z,13.88
2023-05-19T05:49:05.721Z,14.03
2023-05-19T05:51:35.802Z,14.16
2023-05-19T05:54:05.972Z,14.31
2023-05-19T05:56:39.345Z,14.48
2023-05-19T05:59:09.634Z,14.56
2023-05-19T06:01:38.488Z,14.69
2023-05-19T06:04:09.812Z,14.91
2023-05-19T06:06:39.096Z,15.20
2023-05-19T06:09:08.098Z,15.50
2023-05-19T06:11:37.149Z,15.55
2023-05-19T06:14:09.354Z,15.70
2023-05-19T06:16:53.132Z,15.98
2023-05-19T06:19:26.192Z,16.14
2023-05-19T06:21:55.255Z,16.20
2023-05-19T06:24:24.477Z,16.30
2023-05-19T06:26:53.400Z,16.41
2023-05-19T06:29:22.332Z,16.64
2023-05-19T06:31:51.724Z,16.68
2023-05-19T06:34:21.089Z,16.62
2023-05-19T06:36:49.948Z,16.63
2023-05-19T06:39:20.210Z,16.68
2023-05-19T06:41:49.491Z,16.63
2023-05-19T06:44:29.860Z,16.38
2023-05-19T06:46:58.703Z,16.26
2023-05-19T06:49:29.642Z,16.13
2023-05-19T06:51:58.542Z,15.78
2023-05-19T06:54:27.558Z,15.48
2023-05-19T06:56:56.367Z,15.45
2023-05-19T06:59:25.398Z,15.53
2023-05-19T07:01:54.273Z,15.44
2023-05-19T07:04:23.137Z,15.39
2023-05-19T07:06:51.928Z,15.48
2023-05-19T07:09:20.983Z,15.43
2023-05-19T07:11:50.929Z,15.38
2023-05-19T07:14:21.341Z,15.41
2023-05-19T07:16:50.478Z,15.57
2023-05-19T07:19:20.103Z,15.87
2023-05-19T07:21:49.131Z,16.06
2023-05-19T07:24:17.954Z,16.27
2023-05-19T07:26:47.631Z,16.62
2023-05-19T07:29:16.519Z,16.98
2023-05-19T07:31:45.550Z,17.27
2023-05-19T07:34:14.447Z,17.21
2023-05-19T07:36:43.280Z,16.81
2023-05-19T07:39:12.183Z,16.55
2023-05-19T07:41:41.315Z,16.52
2023-05-19T07:44:10.763Z,16.74
2023-05-19T07:46:39.674Z,16.98
2023-05-19T07:49:08.522Z,17.17
2023-05-19T07:51:37.385Z,17.32
2023-05-19T07:54:07.091Z,17.22
2023-05-19T07:56:36.004Z,17.00
2023-05-19T07:59:05.128Z,17.02
2023-05-19T08:01:33.907Z,17.14
2023-05-19T08:04:02.776Z,17.43
2023-05-19T08:06:31.785Z,17.62
2023-05-19T08:09:00.648Z,17.81
2023-05-19T08:11:29.417Z,18.00
2023-05-19T08:13:58.146Z,18.13
2023-05-19T08:16:27.059Z,18.20
2023-05-19T08:18:56.407Z,18.27
2023-05-19T08:21:25.254Z,18.29
2023-05-19T08:23:54.005Z,18.33
2023-05-19T08:26:22.955Z,18.34
2023-05-19T08:28:51.720Z,18.17
2023-05-19T08:31:20.650Z,17.98
2023-05-19T08:33:49.504Z,18.06
2023-05-19T08:36:18.300Z,18.15
2023-05-19T08:38:47.166Z,18.21
2023-05-19T08:41:16.585Z,18.25
2023-05-19T08:43:45.538Z,18.36
2023-05-19T08:46:16.412Z,18.40
2023-05-19T08:48:45.886Z,18.57
2023-05-19T08:51:19.289Z,18.69
2023-05-19T08:53:50.125Z,18.72
2023-05-19T08:56:19.178Z,18.85
2023-05-19T08:58:48.111Z,19.05
2023-05-19T09:01:17.751Z,19.24
2023-05-19T09:03:46.956Z,19.47
2023-05-19T09:06:16.182Z,19.67
2023-05-19T09:08:45.027Z,19.88
2023-05-19T09:11:14.125Z,20.06
2023-05-19T09:13:43.899Z,20.10
2023-05-19T09:16:13.189Z,20.10
2023-05-19T09:18:42.822Z,20.03
2023-05-19T09:21:15.559Z,19.81
2023-05-19T09:23:44.408Z,19.51
2023-05-19T09:26:13.145Z,19.40
2023-05-19T09:28:42.005Z,19.47
2023-05-19T09:31:10.911Z,19.57
2023-05-19T09:33:40.632Z,19.55
2023-05-19T09:36:11.015Z,19.70
2023-05-19T09:38:40.078Z,19.90
2023-05-19T09:41:09.384Z,19.94
2023-05-19T09:43:38.928Z,19.78
2023-05-19T09:46:08.312Z,19.78
2023-05-19T09:48:37.407Z,19.95
2023-05-19T09:51:07.721Z,20.21
2023-05-19T09:53:36.610Z,20.32
2023-05-19T09:56:05.598Z,20.43
2023-05-19T09:58:36.358Z,20.79
2023-05-19T10:01:06.043Z,21.22
2023-05-19T10:03:35.476Z,21.47
2023-05-19T10:06:04.622Z,21.43
2023-05-19T10:08:33.424Z,21.30
2023-05-19T10:11:02.301Z,21.27
2023-05-19T10:13:31.404Z,21.36
2023-05-19T10:16:00.891Z,21.48
2023-05-19T10:18:30.279Z,21.49
2023-05-19T10:20:59.078Z,21.57
2023-05-19T10:23:27.883Z,21.74
2023-05-19T10:25:57.691Z,21.82
2023-05-19T10:28:28.196Z,21.86
2023-05-19T10:30:57.806Z,21.83
2023-05-19T10:33:41.786Z,21.69
2023-05-19T10:36:23.098Z,21.44
2023-05-19T10:38:53.778Z,21.09
2023-05-19T10:41:26.260Z,20.87
2023-05-19T10:43:57.193Z,20.84
2023-05-19T10:46:26.895Z,20.88
2023-05-19T10:48:55.728Z,20.88
2023-05-19T10:51:28.765Z,20.85
2023-05-19T10:53:58.817Z,20.72
2023-05-19T10:56:33.676Z,20.82
2023-05-19T10:59:02.535Z,21.13
2023-05-19T11:01:33.280Z,21.53
2023-05-19T11:04:06.846Z,22.02
2023-05-19T11:06:37.745Z,22.56
2023-05-19T11:09:12.447Z,22.95
2023-05-19T11:11:47.737Z,23.61
2023-05-19T11:14:16.922Z,24.42
2023-05-19T11:16:47.498Z,24.92
2023-05-19T11:19:20.963Z,25.05
2023-05-19T11:21:50.497Z,24.91
2023-05-19T11:24:32.864Z,25.06
2023-05-19T11:27:01.926Z,25.42
2023-05-19T11:29:31.275Z,25.73
2023-05-19T11:32:01.537Z,25.96
2023-05-19T11:34:31.324Z,26.16
2023-05-19T11:37:00.189Z,25.99
2023-05-19T11:39:29.143Z,25.91
2023-05-19T11:41:58.192Z,25.83
2023-05-19T11:44:27.040Z,25.41
2023-05-19T11:46:56.238Z,24.68
2023-05-19T11:49:25.233Z,24.27
2023-05-19T11:51:54.218Z,24.11
2023-05-19T11:54:23.080Z,23.84
2023-05-19T11:56:51.928Z,24.04
2023-05-19T11:59:20.798Z,24.48
2023-05-19T12:01:49.565Z,25.17
2023-05-19T12:04:21.161Z,25.82
2023-05-19T12:06:52.410Z,26.22
2023-05-19T12:09:21.315Z,26.73
2023-05-19T12:11:50.169Z,27.21
2023-05-19T12:14:18.983Z,27.40
2023-05-19T12:16:47.878Z,27.79
2023-05-19T12:19:16.811Z,27.96
2023-05-19T12:21:45.929Z,27.81
2023-05-19T12:24:15.345Z,27.67
2023-05-19T12:26:44.821Z,27.65
2023-05-19T12:29:15.241Z,27.61
2023-05-19T12:31:44.357Z,27.34
2023-05-19T12:34:14.560Z,26.69
2023-05-19T12:36:43.441Z,26.26
2023-05-19T12:39:12.264Z,26.18
2023-05-19T12:41:41.038Z,26.09
2023-05-19T12:44:16.110Z,26.12
2023-05-19T12:46:46.085Z,26.37
2023-05-19T12:49:15.033Z,26.23
2023-05-19T12:51:44.152Z,26.85
2023-05-19T12:54:13.048Z,27.35
2023-05-19T12:56:41.855Z,27.05
2023-05-19T12:59:10.635Z,26.90
2023-05-19T13:01:39.853Z,27.07
2023-05-19T13:04:08.973Z,26.85
2023-05-19T13:06:38.039Z,27.02
2023-05-19T13:09:07.346Z,27.89
2023-05-19T13:11:36.167Z,28.47
2023-05-19T13:14:04.991Z,28.39
2023-05-19T13:16:34.017Z,27.79
2023-05-19T13:19:03.760Z,28.24
2023-05-19T13:21:32.699Z,27.78
2023-05-19T13:24:01.527Z,27.53
2023-05-19T13:26:30.556Z,26.84
2023-05-19T13:28:59.676Z,25.79
2023-05-19T13:31:28.755Z,24.72
2023-05-19T13:33:57.635Z,23.85
2023-05-19T13:36:27.648Z,23.39
2023-05-19T13:38:56.455Z,23.28
2023-05-19T13:41:26.174Z,23.39
2023-05-19T13:43:55.033Z,24.95
2023-05-19T13:46:36.681Z,26.44
2023-05-19T13:49:12.775Z,27.80
2023-05-19T13:51:43.209Z,28.83
2023-05-19T13:54:12.080Z,29.01
2023-05-19T13:56:41.069Z,29.01
2023-05-19T13:59:09.954Z,29.28
2023-05-19T14:01:38.827Z,28.32
2023-05-19T14:04:08.594Z,28.28
2023-05-19T14:06:38.269Z,29.03
2023-05-19T14:09:07.360Z,29.73
2023-05-19T14:11:36.228Z,29.65
2023-05-19T14:14:05.009Z,28.31
2023-05-19T14:16:35.182Z,26.85
2023-05-19T14:19:05.441Z,25.65
2023-05-19T14:21:35.193Z,25.11
2023-05-19T14:24:04.048Z,25.47
2023-05-19T14:26:32.896Z,26.35
2023-05-19T14:29:02.612Z,27.24
2023-05-19T14:31:33.561Z,28.23
2023-05-19T14:34:02.365Z,29.14
2023-05-19T14:36:31.705Z,29.69
2023-05-19T14:39:00.518Z,30.06
2023-05-19T14:41:29.312Z,29.77
2023-05-19T14:43:58.088Z,28.16
2023-05-19T14:46:26.993Z,27.35
2023-05-19T14:48:55.945Z,26.46
2023-05-19T14:51:24.682Z,25.26
2023-05-19T14:53:53.573Z,24.35
2023-05-19T14:56:22.565Z,23.37
2023-05-19T14:58:51.306Z,23.04
2023-05-19T15:01:20.174Z,24.01
2023-05-19T15:03:48.996Z,24.20
2023-05-19T15:06:17.978Z,23.64
2023-05-19T15:08:46.758Z,23.44
2023-05-19T15:11:15.528Z,22.69
2023-05-19T15:13:44.324Z,22.11
2023-05-19T15:16:16.928Z,21.75
2023-05-19T15:18:46.203Z,21.51
2023-05-19T15:21:15.097Z,22.16
2023-05-19T15:23:43.845Z,21.90
2023-05-19T15:26:12.872Z,21.88
2023-05-19T15:28:41.756Z,22.50
2023-05-19T15:31:13.012Z,22.61
2023-05-19T15:33:41.993Z,22.74
2023-05-19T15:36:16.156Z,22.81
2023-05-19T15:38:46.933Z,22.01
2023-05-19T15:41:15.799Z,21.88
2023-05-19T15:43:47.191Z,21.66
2023-05-19T15:46:16.223Z,21.22
2023-05-19T15:48:45.159Z,20.81
2023-05-19T15:51:14.888Z,20.40
2023-05-19T15:53:44.184Z,20.03
2023-05-19T15:56:13.523Z,19.75
2023-05-19T15:58:42.771Z,19.82
2023-05-19T16:01:12.269Z,19.82
2023-05-19T16:03:41.308Z,19.54
2023-05-19T16:06:10.772Z,19.32
2023-05-19T16:08:39.676Z,19.14
2023-05-19T16:11:08.669Z,19.06
2023-05-19T16:13:37.443Z,19.04
2023-05-19T16:16:07.737Z,19.00
2023-05-19T16:18:36.678Z,18.91
2023-05-19T16:21:05.844Z,18.83
2023-05-19T16:23:34.646Z,18.82
2023-05-19T16:26:03.467Z,18.84
2023-05-19T16:28:32.426Z,18.78
2023-05-19T16:31:01.269Z,18.71
2023-05-19T16:33:30.188Z,18.65
2023-05-19T16:36:01.260Z,18.60
2023-05-19T16:38:30.573Z,18.59
2023-05-19T16:40:59.436Z,18.63
2023-05-19T16:43:28.398Z,18.65
2023-05-19T16:45:57.320Z,18.62
2023-05-19T16:48:27.012Z,18.62
2023-05-19T16:50:55.810Z,18.59
2023-05-19T16:53:24.698Z,18.51
2023-05-19T16:55:53.529Z,18.41
2023-05-19T16:58:22.378Z,18.36
2023-05-19T17:00:53.404Z,18.29
2023-05-19T17:03:22.437Z,18.21
2023-05-19T17:05:51.327Z,18.15
2023-05-19T17:08:20.260Z,18.07
2023-05-19T17:10:49.766Z,17.94
2023-05-19T17:13:18.644Z,17.86
2023-05-19T17:15:52.404Z,17.77
2023-05-19T17:18:21.342Z,17.69
2023-05-19T17:20:50.167Z,17.59
2023-05-19T17:23:19.665Z,17.52
2023-05-19T17:25:48.476Z,17.43
2023-05-19T17:28:17.329Z,17.31
2023-05-19T17:30:46.232Z,17.20
2023-05-19T17:33:15.428Z,17.11
2023-05-19T17:35:44.266Z,17.03
2023-05-19T17:38:15.700Z,16.94
2023-05-19T17:40:44.563Z,16.89
2023-05-19T17:43:13.667Z,16.85
2023-05-19T17:45:44.131Z,16.78
2023-05-19T17:48:13.176Z,16.72
2023-05-19T17:50:42.490Z,16.66
2023-05-19T17:53:11.672Z,16.61
2023-05-19T17:55:41.306Z,16.55
2023-05-19T17:58:10.718Z,16.48
2023-05-19T18:00:41.148Z,16.38
2023-05-19T18:03:10.434Z,16.29
2023-05-19T18:05:40.212Z,16.23
2023-05-19T18:08:09.538Z,16.17
2023-05-19T18:10:39.238Z,16.10
2023-05-19T18:13:08.840Z,16.03
2023-05-19T18:15:38.219Z,15.92
2023-05-19T18:18:07.803Z,15.86
2023-05-19T18:20:37.790Z,15.78
2023-05-19T18:23:07.057Z,15.71
2023-05-19T18:25:36.517Z,15.61
2023-05-19T18:28:06.155Z,15.53
2023-05-19T18:30:35.453Z,15.45
2023-05-19T18:33:04.492Z,15.37
2023-05-19T18:35:34.065Z,15.30
2023-05-19T18:38:03.020Z,15.22
2023-05-19T18:40:33.021Z,15.12
2023-05-19T18:43:02.134Z,15.02
2023-05-19T18:45:31.168Z,14.95
2023-05-19T18:48:00.043Z,14.85
2023-05-19T18:50:29.160Z,14.76
2023-05-19T18:52:57.933Z,14.68
2023-05-19T18:55:26.692Z,14.58
2023-05-19T18:57:55.526Z,14.54
2023-05-19T19:00:25.924Z,14.47
2023-05-19T19:02:54.831Z,14.38
2023-05-19T19:05:24.247Z,14.30
2023-05-19T19:07:53.377Z,14.23
2023-05-19T19:10:25.255Z,14.13
2023-05-19T19:12:54.495Z,14.10
2023-05-19T19:15:23.435Z,14.02
2023-05-19T19:17:53.181Z,13.96
2023-05-19T19:20:22.353Z,13.90
2023-05-19T19:22:55.527Z,13.84
2023-05-19T19:25:25.172Z,13.78
2023-05-19T19:27:54.370Z,13.72
2023-05-19T19:30:23.484Z,13.67
2023-05-19T19:32:52.946Z,13.63
2023-05-19T19:35:21.987Z,13.60
2023-05-19T19:37:51.724Z,13.57
2023-05-19T19:40:20.622Z,13.54
2023-05-19T19:42:49.452Z,13.51
2023-05-19T19:45:19.594Z,13.48
2023-05-19T19:47:48.740Z,13.41
2023-05-19T19:50:18.199Z,13.43
2023-05-19T19:52:50.238Z,13.42
2023-05-19T19:55:19.437Z,13.43
2023-05-19T19:57:49.378Z,13.42
2023-05-19T20:00:20.101Z,13.43
2023-05-19T20:03:03.565Z,13.43
2023-05-19T20:05:33.530Z,13.43
2023-05-19T20:08:02.452Z,13.44
2023-05-19T20:10:33.231Z,13.44
2023-05-19T20:13:03.055Z,13.43
2023-05-19T20:15:32.284Z,13.44
2023-05-19T20:18:01.934Z,13.43
2023-05-19T20:20:30.762Z,13.43
2023-05-19T20:23:00.398Z,13.43
2023-05-19T20:25:29.134Z,13.44
2023-05-19T20:27:58.697Z,13.45
2023-05-19T20:30:28.323Z,13.45
2023-05-19T20:32:57.714Z,13.45
2023-05-19T20:35:27.031Z,13.45
2023-05-19T20:37:56.237Z,13.44
2023-05-19T20:40:25.077Z,13.45
2023-05-19T20:42:53.873Z,13.44
2023-05-19T20:45:22.717Z,13.43
2023-05-19T20:47:51.666Z,13.42
2023-05-19T20:50:20.748Z,13.42
2023-05-19T20:52:49.576Z,13.40
2023-05-19T20:55:18.441Z,13.39
2023-05-19T20:57:47.366Z,13.38
2023-05-19T21:00:16.776Z,13.35
2023-05-19T21:02:45.718Z,13.32
2023-05-19T21:05:14.523Z,13.28
2023-05-19T21:07:43.355Z,13.23
2023-05-19T21:10:13.757Z,13.20
2023-05-19T21:12:42.563Z,13.17
2023-05-19T21:15:12.198Z,13.15
2023-05-19T21:17:41.124Z,13.14
2023-05-19T21:20:11.000Z,13.13
2023-05-19T21:22:40.821Z,13.11
2023-05-19T21:25:09.962Z,13.09
2023-05-19T21:27:39.520Z,13.09
2023-05-19T21:30:09.775Z,13.08
2023-05-19T21:32:38.662Z,13.06
2023-05-19T21:35:07.918Z,13.03
2023-05-19T21:37:37.273Z,13.00
2023-05-19T21:40:06.633Z,12.97
2023-05-19T21:42:35.457Z,12.95
2023-05-19T21:45:04.463Z,12.93
2023-05-19T21:47:33.263Z,12.91
2023-05-19T21:50:02.068Z,12.90
2023-05-19T21:52:31.338Z,12.87
2023-05-19T21:55:00.183Z,12.84
2023-05-19T21:57:28.927Z,12.79
2023-05-19T21:59:57.913Z,12.76
2023-05-19T22:02:26.858Z,12.74
2023-05-19T22:04:56.106Z,12.73
2023-05-19T22:07:26.886Z,12.73
2023-05-19T22:09:56.209Z,12.71
2023-05-19T22:12:25.054Z,12.68
2023-05-19T22:14:54.043Z,12.67
2023-05-19T22:17:22.812Z,12.68
2023-05-19T22:19:51.576Z,12.67
2023-05-19T22:22:20.524Z,12.65
2023-05-19T22:24:49.474Z,12.64
2023-05-19T22:27:18.220Z,12.63
2023-05-19T22:29:47.037Z,12.66
2023-05-19T22:32:18.239Z,12.67
2023-05-19T22:34:47.254Z,12.67
2023-05-19T22:37:16.148Z,12.68
2023-05-19T22:39:45.224Z,12.69
2023-05-19T22:42:13.989Z,12.69
2023-05-19T22:44:44.238Z,12.69
2023-05-19T22:47:13.808Z,12.71
2023-05-19T22:49:43.167Z,12.72
2023-05-19T22:52:11.959Z,12.72
2023-05-19T22:54:40.737Z,12.72
2023-05-19T22:57:09.486Z,12.75
2023-05-19T22:59:38.419Z,12.79
2023-05-19T23:02:07.290Z,12.81
2023-05-19T23:04:36.482Z,12.84
2023-05-19T23:07:05.702Z,12.86
2023-05-19T23:09:35.171Z,12.87
2023-05-19T23:12:04.009Z,12.89
2023-05-19T23:14:32.931Z,12.89
2023-05-19T23:17:01.712Z,12.90
2023-05-19T23:19:31.889Z,12.90
2023-05-19T23:22:00.826Z,12.91
2023-05-19T23:24:29.677Z,12.92
2023-05-19T23:26:58.504Z,12.91
2023-05-19T23:29:27.406Z,12.90
2023-05-19T23:31:56.165Z,12.89
2023-05-19T23:34:25.145Z,12.89
2023-05-19T23:36:53.904Z,12.89
2023-05-19T23:39:25.103Z,12.88
2023-05-19T23:41:53.887Z,12.87
2023-05-19T23:44:22.760Z,12.86
2023-05-19T23:46:51.690Z,12.86
2023-05-19T23:49:20.677Z,12.84
2023-05-19T23:51:49.631Z,12.81
2023-05-19T23:54:18.560Z,12.77
2023-05-19T23:56:47.292Z,12.74
2023-05-19T23:59:16.052Z,12.71
